Global Bonanza — 3EZB — position and weather

sailwx.info

Track history (hours):
 
Tides and Currents Weather Stations Pressure Air Temp Water Temp Dewpoint Dewpoint Depression Visibility Wind Speed Wind Dir Waves Ship Positions

Global Bonanza

Last reported at 2017-Oct-14 08:27 UTC. Time now 2017-Oct-19 16:54 UTC.
Position N 34°46' W 014°29'.

Length 225 m; draft 7.6 m.

Type: Cargo ship. MMSI: 371888000.

Date/timePositionNaut miles runAvg speedWind from/ knotsBaromVisibWave heightAir tempDewpointWater temp
2017-Oct-14 08:27N 34°46' W 014°29'612.7
2017-Oct-14 08:00N 34°49' W 014°24'2012.8
2017-Oct-14 06:28N 35°02' W 014°05'712.4
2017-Oct-14 05:54N 35°07' W 013°59'512.3
2017-Oct-14 05:28N 35°10' W 013°54'612.6
2017-Oct-14 05:00N 35°14' W 013°48'612.5
2017-Oct-14 04:30N 35°18' W 013°42'912.5
2017-Oct-14 03:48N 35°24' W 013°34'412.8
2017-Oct-14 03:30N 35°26' W 013°31'713.0
2017-Oct-14 03:00N 35°30' W 013°25'713.2
2017-Oct-14 02:30N 35°34' W 013°18'612.9
2017-Oct-14 02:00N 35°39' W 013°12'613.0
2017-Oct-14 01:30N 35°43' W 013°06'713.0
2017-Oct-14 01:00N 35°47' W 013°00'713.2
2017-Oct-14 00:30N 35°51' W 012°54'713.0
2017-Oct-14 00:00N 35°56' W 012°48'713.0
2017-Oct-13 23:30N 35°60' W 012°42'612.8
2017-Oct-13 23:00N 36°04' W 012°36'713.3
2017-Oct-13 22:28N 36°08' W 012°28'613.2
2017-Oct-13 22:00N 36°12' W 012°23'713.1
2017-Oct-13 21:30N 36°16' W 012°17'713.2
2017-Oct-13 21:00N 36°20' W 012°10'612.8
2017-Oct-13 20:30N 36°25' W 012°05'713.0
2017-Oct-13 20:00N 36°29' W 011°59'713.5
2017-Oct-13 19:30N 36°34' W 011°52'713.3
2017-Oct-13 19:00N 36°38' W 011°46'612.0
2017-Oct-13 18:30N 36°40' W 011°39'713.4
2017-Oct-13 18:00N 36°39' W 011°31'713.5
2017-Oct-13 17:30N 36°38' W 011°22'713.3
2017-Oct-13 17:00N 36°36' W 011°14'713.1
2017-Oct-13 16:30N 36°35' W 011°06'713.1
2017-Oct-13 16:00N 36°34' W 010°58'713.1
2017-Oct-13 15:30N 36°32' W 010°50'713.0
2017-Oct-13 14:59N 36°31' W 010°42'613.0
2017-Oct-13 14:29N 36°31' W 010°34'612.8
2017-Oct-13 14:00N 36°29' W 010°27'713.2
2017-Oct-13 13:27N 36°27' W 010°18'613.3
2017-Oct-13 13:00N 36°26' W 010°10'713.5
2017-Oct-13 12:30N 36°25' W 010°02'713.4
2017-Oct-13 12:00N 36°24' W 009°54'713.2
2017-Oct-13 11:30N 36°22' W 009°46'612.7
2017-Oct-13 11:00N 36°21' W 009°38'612.6
2017-Oct-13 10:30N 36°20' W 009°31'612.7
2017-Oct-13 10:00N 36°18' W 009°23'612.6
2017-Oct-13 09:30N 36°17' W 009°15'612.6
2017-Oct-13 09:00N 36°16' W 009°08'713.2
2017-Oct-13 08:29N 36°15' W 008°59'613.2
2017-Oct-13 08:00N 36°14' W 008°52'613.0
2017-Oct-13 07:30N 36°13' W 008°44'713.5
2017-Oct-13 07:00N 36°12' W 008°35'713.7
2017-Oct-13 06:29N 36°12' W 008°27'713.6
2017-Oct-13 06:00N 36°11' W 008°18'813.5
2017-Oct-13 05:23N 36°10' W 008°08'713.5
2017-Oct-13 04:54N 36°09' W 008°00'613.5
2017-Oct-13 04:28N 36°08' W 007°53'713.5
2017-Oct-13 03:58N 36°07' W 007°45'613.0
2017-Oct-13 03:30N 36°06' W 007°37'912.9
2017-Oct-13 02:48N 36°05' W 007°26'413.1
2017-Oct-13 02:30N 36°05' W 007°21'3913.0
2017-Oct-12 23:32N 35°60' W 006°34'412.9
2017-Oct-12 23:14N 35°59' W 006°29'3212.7
2017-Oct-12 20:41N 35°58' W 005°49'212.8
2017-Oct-12 20:30N 35°58' W 005°46'713.5
2017-Oct-12 19:59N 35°58' W 005°38'613.0
2017-Oct-12 19:30N 35°60' W 005°31'612.1
2017-Oct-12 19:00N 36°03' W 005°24'5 9.5
2017-Oct-12 18:30N 36°07' W 005°22'0 0.7
2017-Oct-12 17:57N 36°08' W 005°22'0 0.1
2017-Oct-12 17:30N 36°08' W 005°23'0 0.1
2017-Oct-12 17:00N 36°08' W 005°23'0 0.0
2017-Oct-12 15:51N 36°08' W 005°23'0 0.1
2017-Oct-12 15:30N 36°08' W 005°23'0 0.1
2017-Oct-12 15:00N 36°08' W 005°23'0 0.1
2017-Oct-12 14:30N 36°08' W 005°23'0 0.2
2017-Oct-12 14:00N 36°08' W 005°23'0 0.5
2017-Oct-12 13:30N 36°07' W 005°22'0 0.0
2017-Oct-12 13:00N 36°07' W 005°22'0 0.1
2017-Oct-12 12:30N 36°07' W 005°22'0 0.1
2017-Oct-12 11:51N 36°07' W 005°22'0 0.2
2017-Oct-12 11:30N 36°07' W 005°22'1 2.2
2017-Oct-12 11:00N 36°06' W 005°22'2 4.1
2017-Oct-12 10:30N 36°05' W 005°21'3 6.3
2017-Oct-12 10:00N 36°04' W 005°17'5 9.9
2017-Oct-12 09:30N 36°06' W 005°11'5 9.5
2017-Oct-12 09:00N 36°08' W 005°06'1 1.1
2017-Oct-12 08:27N 36°09' W 005°05'0 0.6
2017-Oct-12 07:53N 36°08' W 005°05'0 0.3
2017-Oct-12 07:29N 36°08' W 005°06'5 8.6
2017-Oct-12 06:53N 36°04' W 005°10'1513.1
2017-Oct-12 05:42N 36°07' W 004°51'413.9
2017-Oct-12 05:25N 36°07' W 004°46'11712.8
2017-Oct-11 20:16N 36°25' W 002°23'612.3
2017-Oct-11 19:45N 36°26' W 002°15'412.2
2017-Oct-11 19:26N 36°26' W 002°10'2012.1
2017-Oct-11 17:48N 36°29' W 001°46'512.2
2017-Oct-11 17:21N 36°30' W 001°39'512.7
2017-Oct-11 16:57N 36°31' W 001°33'  
2017-Oct-09 08:05N 36°39' E 013°39'113.9
2017-Oct-09 07:59N 36°39' E 013°40'714.2
2017-Oct-09 07:30N 36°37' E 013°48'714.0
2017-Oct-09 07:00N 36°34' E 013°57'612.8
2017-Oct-09 06:30N 36°32' E 014°04'612.8
2017-Oct-09 06:00N 36°30' E 014°12'712.9
2017-Oct-09 05:30N 36°28' E 014°19'612.8
2017-Oct-09 05:00N 36°26' E 014°27'612.8
2017-Oct-09 04:30N 36°25' E 014°35'612.9
2017-Oct-09 04:00N 36°25' E 014°43'712.7
2017-Oct-09 03:29N 36°24' E 014°51'  
2017-Oct-06 12:56N 35°49' E 030°20'2913.4
2017-Oct-06 10:48N 35°49' E 030°55'413.4
2017-Oct-06 10:30N 35°49' E 031°00'2613.3
2017-Oct-06 08:33N 35°49' E 031°32'113.2
2017-Oct-06 08:30N 35°49' E 031°33'713.2
2017-Oct-06 08:00N 35°50' E 031°41'713.3
2017-Oct-06 07:30N 35°50' E 031°49'713.5
2017-Oct-06 07:00N 35°50' E 031°58'  
Track history (hours):
 
Tides and Currents Weather Stations Pressure Air Temp Water Temp Dewpoint Dewpoint Depression Visibility Wind Speed Wind Dir Waves Ship Positions

Global Bonanza

Last reported at 2017-Oct-14 08:27 UTC. Time now 2017-Oct-19 16:54 UTC.
Position N 34°46' W 014°29'.

Length 225 m; draft 7.6 m.

Type: Cargo ship. MMSI: 371888000.

Date/timePositionNaut miles runAvg speedWind from/ knotsBaromVisibWave heightAir tempDewpointWater temp
2017-Oct-14 08:27N 34°46' W 014°29'612.7
2017-Oct-14 08:00N 34°49' W 014°24'2012.8
2017-Oct-14 06:28N 35°02' W 014°05'712.4
2017-Oct-14 05:54N 35°07' W 013°59'512.3
2017-Oct-14 05:28N 35°10' W 013°54'612.6
2017-Oct-14 05:00N 35°14' W 013°48'612.5
2017-Oct-14 04:30N 35°18' W 013°42'912.5
2017-Oct-14 03:48N 35°24' W 013°34'412.8
2017-Oct-14 03:30N 35°26' W 013°31'713.0
2017-Oct-14 03:00N 35°30' W 013°25'713.2
2017-Oct-14 02:30N 35°34' W 013°18'612.9
2017-Oct-14 02:00N 35°39' W 013°12'613.0
2017-Oct-14 01:30N 35°43' W 013°06'713.0
2017-Oct-14 01:00N 35°47' W 013°00'713.2
2017-Oct-14 00:30N 35°51' W 012°54'713.0
2017-Oct-14 00:00N 35°56' W 012°48'713.0
2017-Oct-13 23:30N 35°60' W 012°42'612.8
2017-Oct-13 23:00N 36°04' W 012°36'713.3
2017-Oct-13 22:28N 36°08' W 012°28'613.2
2017-Oct-13 22:00N 36°12' W 012°23'713.1
2017-Oct-13 21:30N 36°16' W 012°17'713.2
2017-Oct-13 21:00N 36°20' W 012°10'612.8
2017-Oct-13 20:30N 36°25' W 012°05'713.0
2017-Oct-13 20:00N 36°29' W 011°59'713.5
2017-Oct-13 19:30N 36°34' W 011°52'713.3
2017-Oct-13 19:00N 36°38' W 011°46'612.0
2017-Oct-13 18:30N 36°40' W 011°39'713.4
2017-Oct-13 18:00N 36°39' W 011°31'713.5
2017-Oct-13 17:30N 36°38' W 011°22'713.3
2017-Oct-13 17:00N 36°36' W 011°14'713.1
2017-Oct-13 16:30N 36°35' W 011°06'713.1
2017-Oct-13 16:00N 36°34' W 010°58'713.1
2017-Oct-13 15:30N 36°32' W 010°50'713.0
2017-Oct-13 14:59N 36°31' W 010°42'613.0
2017-Oct-13 14:29N 36°31' W 010°34'612.8
2017-Oct-13 14:00N 36°29' W 010°27'713.2
2017-Oct-13 13:27N 36°27' W 010°18'613.3
2017-Oct-13 13:00N 36°26' W 010°10'713.5
2017-Oct-13 12:30N 36°25' W 010°02'713.4
2017-Oct-13 12:00N 36°24' W 009°54'713.2
2017-Oct-13 11:30N 36°22' W 009°46'612.7
2017-Oct-13 11:00N 36°21' W 009°38'612.6
2017-Oct-13 10:30N 36°20' W 009°31'612.7
2017-Oct-13 10:00N 36°18' W 009°23'612.6
2017-Oct-13 09:30N 36°17' W 009°15'612.6
2017-Oct-13 09:00N 36°16' W 009°08'713.2
2017-Oct-13 08:29N 36°15' W 008°59'613.2
2017-Oct-13 08:00N 36°14' W 008°52'613.0
2017-Oct-13 07:30N 36°13' W 008°44'713.5
2017-Oct-13 07:00N 36°12' W 008°35'713.7
2017-Oct-13 06:29N 36°12' W 008°27'713.6
2017-Oct-13 06:00N 36°11' W 008°18'813.5
2017-Oct-13 05:23N 36°10' W 008°08'713.5
2017-Oct-13 04:54N 36°09' W 008°00'613.5
2017-Oct-13 04:28N 36°08' W 007°53'713.5
2017-Oct-13 03:58N 36°07' W 007°45'613.0
2017-Oct-13 03:30N 36°06' W 007°37'912.9
2017-Oct-13 02:48N 36°05' W 007°26'413.1
2017-Oct-13 02:30N 36°05' W 007°21'3913.0
2017-Oct-12 23:32N 35°60' W 006°34'412.9
2017-Oct-12 23:14N 35°59' W 006°29'3212.7
2017-Oct-12 20:41N 35°58' W 005°49'212.8
2017-Oct-12 20:30N 35°58' W 005°46'713.5
2017-Oct-12 19:59N 35°58' W 005°38'613.0
2017-Oct-12 19:30N 35°60' W 005°31'612.1
2017-Oct-12 19:00N 36°03' W 005°24'5 9.5
2017-Oct-12 18:30N 36°07' W 005°22'0 0.7
2017-Oct-12 17:57N 36°08' W 005°22'0 0.1
2017-Oct-12 17:30N 36°08' W 005°23'0 0.1
2017-Oct-12 17:00N 36°08' W 005°23'0 0.0
2017-Oct-12 15:51N 36°08' W 005°23'0 0.1
2017-Oct-12 15:30N 36°08' W 005°23'0 0.1
2017-Oct-12 15:00N 36°08' W 005°23'0 0.1
2017-Oct-12 14:30N 36°08' W 005°23'0 0.2
2017-Oct-12 14:00N 36°08' W 005°23'0 0.5
2017-Oct-12 13:30N 36°07' W 005°22'0 0.0
2017-Oct-12 13:00N 36°07' W 005°22'0 0.1
2017-Oct-12 12:30N 36°07' W 005°22'0 0.1
2017-Oct-12 11:51N 36°07' W 005°22'0 0.2
2017-Oct-12 11:30N 36°07' W 005°22'1 2.2
2017-Oct-12 11:00N 36°06' W 005°22'2 4.1
2017-Oct-12 10:30N 36°05' W 005°21'3 6.3
2017-Oct-12 10:00N 36°04' W 005°17'5 9.9
2017-Oct-12 09:30N 36°06' W 005°11'5 9.5
2017-Oct-12 09:00N 36°08' W 005°06'1 1.1
2017-Oct-12 08:27N 36°09' W 005°05'0 0.6
2017-Oct-12 07:53N 36°08' W 005°05'0 0.3
2017-Oct-12 07:29N 36°08' W 005°06'5 8.6
2017-Oct-12 06:53N 36°04' W 005°10'1513.1
2017-Oct-12 05:42N 36°07' W 004°51'413.9
2017-Oct-12 05:25N 36°07' W 004°46'11712.8
2017-Oct-11 20:16N 36°25' W 002°23'612.3
2017-Oct-11 19:45N 36°26' W 002°15'412.2
2017-Oct-11 19:26N 36°26' W 002°10'2012.1
2017-Oct-11 17:48N 36°29' W 001°46'512.2
2017-Oct-11 17:21N 36°30' W 001°39'512.7
2017-Oct-11 16:57N 36°31' W 001°33'  
2017-Oct-09 08:05N 36°39' E 013°39'113.9
2017-Oct-09 07:59N 36°39' E 013°40'714.2
2017-Oct-09 07:30N 36°37' E 013°48'714.0
2017-Oct-09 07:00N 36°34' E 013°57'612.8
2017-Oct-09 06:30N 36°32' E 014°04'612.8
2017-Oct-09 06:00N 36°30' E 014°12'712.9
2017-Oct-09 05:30N 36°28' E 014°19'612.8
2017-Oct-09 05:00N 36°26' E 014°27'612.8
2017-Oct-09 04:30N 36°25' E 014°35'612.9
2017-Oct-09 04:00N 36°25' E 014°43'712.7
2017-Oct-09 03:29N 36°24' E 014°51'  
2017-Oct-06 12:56N 35°49' E 030°20'2913.4
2017-Oct-06 10:48N 35°49' E 030°55'413.4
2017-Oct-06 10:30N 35°49' E 031°00'2613.3
2017-Oct-06 08:33N 35°49' E 031°32'113.2
2017-Oct-06 08:30N 35°49' E 031°33'713.2
2017-Oct-06 08:00N 35°50' E 031°41'713.3
2017-Oct-06 07:30N 35°50' E 031°49'713.5
2017-Oct-06 07:00N 35°50' E 031°58'  

Dump ship's entire track history